CPA390 VHHH-ZBAA
Flight info
| Callsign | CPA390 |
|---|---|
| Flight time | N/A |
| Altitude | 33100 |
| Route | BEKOL A461 BUBDA W56 DUGEB DUGEB5D |
| Aircraft | A359/H-SDE2E3GHIJ1J3J4J5LM1ORWXY/LB1D1 |
Departure
| Time | 2026-05-07 07:28 |
|---|---|
| Airport | Hong Kong International Airport (VHHH) |
Arrival
| Time | N/A |
|---|---|
| Airport | Beijing Capital International Airport (ZBAA) |
| Time | Latitude | Longitude | Altitude | Speed | Heading |
|---|---|---|---|---|---|
| 2026-05-07 07:01 | 22.31303 | 113.92969 | 42 ft | 0 kts | 340° |
| 2026-05-07 07:13 | 22.31301 | 113.92969 | 41 ft | 2 kts | 340° |
| 2026-05-07 07:13 | 22.31277 | 113.92979 | 41 ft | 4 kts | 340° |
| 2026-05-07 07:13 | 22.31252 | 113.92988 | 40 ft | 2 kts | 340° |
| 2026-05-07 07:14 | 22.31233 | 113.93000 | 41 ft | 4 kts | 300° |
| 2026-05-07 07:14 | 22.31226 | 113.93026 | 41 ft | 4 kts | 268° |
| 2026-05-07 07:14 | 22.31230 | 113.93054 | 41 ft | 3 kts | 252° |
| 2026-05-07 07:14 | 22.31231 | 113.93058 | 41 ft | 4 kts | 251° |
| 2026-05-07 07:17 | 22.31229 | 113.93053 | 41 ft | 3 kts | 251° |
| 2026-05-07 07:17 | 22.31218 | 113.93017 | 41 ft | 9 kts | 251° |
| 2026-05-07 07:18 | 22.31193 | 113.92943 | 41 ft | 10 kts | 250° |
| 2026-05-07 07:18 | 22.31154 | 113.92881 | 41 ft | 11 kts | 216° |
| 2026-05-07 07:18 | 22.31084 | 113.92843 | 41 ft | 12 kts | 205° |
| 2026-05-07 07:18 | 22.31006 | 113.92802 | 41 ft | 13 kts | 206° |
| 2026-05-07 07:19 | 22.30924 | 113.92759 | 41 ft | 14 kts | 206° |
| 2026-05-07 07:19 | 22.30855 | 113.92719 | 41 ft | 9 kts | 220° |
| 2026-05-07 07:19 | 22.30823 | 113.92653 | 41 ft | 11 kts | 250° |
| 2026-05-07 07:19 | 22.30796 | 113.92572 | 41 ft | 12 kts | 250° |
| 2026-05-07 07:20 | 22.30767 | 113.92482 | 40 ft | 13 kts | 250° |
| 2026-05-07 07:20 | 22.30739 | 113.92392 | 41 ft | 8 kts | 254° |
| 2026-05-07 07:20 | 22.30758 | 113.92341 | 41 ft | 8 kts | 322° |
| 2026-05-07 07:20 | 22.30824 | 113.92316 | 40 ft | 12 kts | 341° |
| 2026-05-07 07:21 | 22.30922 | 113.92281 | 41 ft | 17 kts | 341° |
| 2026-05-07 07:21 | 22.31046 | 113.92235 | 41 ft | 20 kts | 341° |
| 2026-05-07 07:21 | 22.31176 | 113.92186 | 41 ft | 20 kts | 341° |
| 2026-05-07 07:21 | 22.31313 | 113.92135 | 41 ft | 21 kts | 341° |
| 2026-05-07 07:22 | 22.31455 | 113.92081 | 41 ft | 21 kts | 341° |
| 2026-05-07 07:22 | 22.31562 | 113.92041 | 41 ft | 12 kts | 341° |
| 2026-05-07 07:22 | 22.31612 | 113.91994 | 42 ft | 9 kts | 284° |
| 2026-05-07 07:22 | 22.31604 | 113.91946 | 42 ft | 12 kts | 252° |
| 2026-05-07 07:23 | 22.31557 | 113.91800 | 42 ft | 19 kts | 251° |
| 2026-05-07 07:23 | 22.31529 | 113.91710 | 42 ft | 19 kts | 252° |
| 2026-05-07 07:23 | 22.31472 | 113.91521 | 42 ft | 21 kts | 250° |
| 2026-05-07 07:23 | 22.31422 | 113.91373 | 42 ft | 21 kts | 250° |
| 2026-05-07 07:24 | 22.31371 | 113.91220 | 42 ft | 22 kts | 250° |
| 2026-05-07 07:24 | 22.31336 | 113.91113 | 42 ft | 22 kts | 251° |
| 2026-05-07 07:24 | 22.31266 | 113.90898 | 42 ft | 23 kts | 250° |
| 2026-05-07 07:24 | 22.31230 | 113.90786 | 42 ft | 24 kts | 251° |
| 2026-05-07 07:25 | 22.31119 | 113.90442 | 42 ft | 25 kts | 250° |
| 2026-05-07 07:25 | 22.31063 | 113.90267 | 42 ft | 25 kts | 251° |
| 2026-05-07 07:25 | 22.31007 | 113.90096 | 42 ft | 18 kts | 250° |
| 2026-05-07 07:26 | 22.30972 | 113.89987 | 42 ft | 15 kts | 252° |
| 2026-05-07 07:26 | 22.30943 | 113.89899 | 42 ft | 11 kts | 250° |
| 2026-05-07 07:26 | 22.30940 | 113.89823 | 42 ft | 10 kts | 296° |
| 2026-05-07 07:26 | 22.30998 | 113.89789 | 42 ft | 10 kts | 340° |
| 2026-05-07 07:27 | 22.31066 | 113.89776 | 42 ft | 9 kts | 13° |
| 2026-05-07 07:27 | 22.31104 | 113.89827 | 42 ft | 7 kts | 68° |
| 2026-05-07 07:27 | 22.31122 | 113.89883 | 42 ft | 24 kts | 71° |
| 2026-05-07 07:27 | 22.31256 | 113.90299 | 42 ft | 91 kts | 71° |
| 2026-05-07 07:28 | 22.31525 | 113.91130 | 40 ft | 145 kts | 71° |
| 2026-05-07 07:28 | 22.31909 | 113.92321 | 151 ft | 181 kts | 71° |
| 2026-05-07 07:28 | 22.32308 | 113.93575 | 899 ft | 176 kts | 70° |
| 2026-05-07 07:28 | 22.32714 | 113.94833 | 1586 ft | 178 kts | 70° |
| 2026-05-07 07:29 | 22.33135 | 113.96120 | 1957 ft | 188 kts | 70° |
| 2026-05-07 07:29 | 22.33743 | 113.97442 | 2150 ft | 206 kts | 58° |
| 2026-05-07 07:29 | 22.34570 | 113.98786 | 2378 ft | 221 kts | 55° |
| 2026-05-07 07:29 | 22.35453 | 114.00167 | 2845 ft | 224 kts | 57° |
| 2026-05-07 07:30 | 22.36335 | 114.01561 | 3395 ft | 224 kts | 57° |
| 2026-05-07 07:30 | 22.37215 | 114.02954 | 3963 ft | 224 kts | 57° |
| 2026-05-07 07:30 | 22.38093 | 114.04344 | 4459 ft | 227 kts | 56° |
| 2026-05-07 07:30 | 22.38986 | 114.05764 | 4930 ft | 230 kts | 57° |
| 2026-05-07 07:31 | 22.39822 | 114.07258 | 5392 ft | 234 kts | 67° |
| 2026-05-07 07:31 | 22.40080 | 114.08984 | 5774 ft | 239 kts | 98° |
| 2026-05-07 07:31 | 22.39579 | 114.10741 | 5979 ft | 253 kts | 115° |
| 2026-05-07 07:31 | 22.38840 | 114.12512 | 6180 ft | 269 kts | 116° |
| 2026-05-07 07:32 | 22.38047 | 114.14395 | 6508 ft | 279 kts | 115° |
| 2026-05-07 07:32 | 22.37247 | 114.16329 | 6973 ft | 284 kts | 115° |
| 2026-05-07 07:32 | 22.36441 | 114.18300 | 7450 ft | 288 kts | 115° |
| 2026-05-07 07:32 | 22.35630 | 114.20296 | 8038 ft | 292 kts | 115° |
| 2026-05-07 07:33 | 22.34811 | 114.22313 | 8755 ft | 295 kts | 115° |
| 2026-05-07 07:33 | 22.33999 | 114.24361 | 9338 ft | 298 kts | 112° |
| 2026-05-07 07:33 | 22.33585 | 114.26560 | 9751 ft | 304 kts | 89° |
| 2026-05-07 07:33 | 22.34084 | 114.28778 | 10107 ft | 311 kts | 63° |
| 2026-05-07 07:34 | 22.35285 | 114.30769 | 10305 ft | 323 kts | 53° |
| 2026-05-07 07:34 | 22.36698 | 114.32729 | 10492 ft | 338 kts | 49° |
| 2026-05-07 07:34 | 22.38547 | 114.34371 | 10687 ft | 353 kts | 26° |
| 2026-05-07 07:34 | 22.40903 | 114.35086 | 10922 ft | 363 kts | 1° |
| 2026-05-07 07:35 | 22.43432 | 114.34829 | 11284 ft | 367 kts | 347° |
| 2026-05-07 07:35 | 22.45946 | 114.34250 | 11825 ft | 370 kts | 344° |
| 2026-05-07 07:35 | 22.48347 | 114.33244 | 12371 ft | 370 kts | 328° |
| 2026-05-07 07:35 | 22.50322 | 114.31499 | 12960 ft | 367 kts | 308° |
| 2026-05-07 07:36 | 22.51643 | 114.29169 | 13485 ft | 365 kts | 289° |
| 2026-05-07 07:36 | 22.52286 | 114.26511 | 14027 ft | 366 kts | 279° |
| 2026-05-07 07:36 | 22.52715 | 114.23791 | 14560 ft | 367 kts | 278° |
| 2026-05-07 07:36 | 22.53131 | 114.21050 | 15106 ft | 370 kts | 278° |
| 2026-05-07 07:37 | 22.53572 | 114.18298 | 15636 ft | 372 kts | 279° |
| 2026-05-07 07:37 | 22.54363 | 114.15623 | 16118 ft | 378 kts | 293° |
| 2026-05-07 07:37 | 22.55817 | 114.13283 | 16451 ft | 384 kts | 310° |
| 2026-05-07 07:37 | 22.57922 | 114.11468 | 16767 ft | 391 kts | 325° |
| 2026-05-07 07:38 | 22.60303 | 114.10017 | 17094 ft | 395 kts | 330° |
| 2026-05-07 07:38 | 22.62786 | 114.08720 | 17423 ft | 397 kts | 332° |
| 2026-05-07 07:38 | 22.65316 | 114.07482 | 17728 ft | 400 kts | 333° |
| 2026-05-07 07:38 | 22.67860 | 114.06256 | 18032 ft | 401 kts | 333° |
| 2026-05-07 07:39 | 22.70419 | 114.05008 | 18324 ft | 404 kts | 332° |
| 2026-05-07 07:39 | 22.72976 | 114.03736 | 18659 ft | 405 kts | 332° |
| 2026-05-07 07:39 | 22.75525 | 114.02446 | 18967 ft | 405 kts | 332° |
| 2026-05-07 07:39 | 22.78087 | 114.01133 | 19232 ft | 408 kts | 332° |
| 2026-05-07 07:40 | 22.80653 | 113.99813 | 19537 ft | 409 kts | 332° |
| 2026-05-07 07:40 | 22.83202 | 113.98496 | 19841 ft | 410 kts | 331° |
| 2026-05-07 07:40 | 22.85784 | 113.97162 | 20113 ft | 412 kts | 332° |
| 2026-05-07 07:40 | 22.88383 | 113.95821 | 20373 ft | 414 kts | 332° |
| 2026-05-07 07:41 | 22.90983 | 113.94483 | 20670 ft | 415 kts | 332° |
| 2026-05-07 07:41 | 22.93598 | 113.93133 | 20937 ft | 416 kts | 332° |
| 2026-05-07 07:41 | 22.96216 | 113.91770 | 21193 ft | 418 kts | 331° |
| 2026-05-07 07:41 | 22.98840 | 113.90399 | 21436 ft | 419 kts | 331° |
| 2026-05-07 07:42 | 23.01474 | 113.89023 | 21685 ft | 421 kts | 331° |
| 2026-05-07 07:42 | 23.04116 | 113.87644 | 21932 ft | 423 kts | 331° |
| 2026-05-07 07:42 | 23.06778 | 113.86255 | 22178 ft | 424 kts | 332° |
| 2026-05-07 07:42 | 23.09484 | 113.84966 | 22409 ft | 427 kts | 335° |
| 2026-05-07 07:43 | 23.12259 | 113.83795 | 22611 ft | 428 kts | 336° |
| 2026-05-07 07:43 | 23.15061 | 113.82662 | 22794 ft | 431 kts | 337° |
| 2026-05-07 07:43 | 23.17888 | 113.81545 | 23008 ft | 432 kts | 337° |
| 2026-05-07 07:43 | 23.20682 | 113.80453 | 23233 ft | 433 kts | 338° |
| 2026-05-07 07:44 | 23.23523 | 113.79346 | 23426 ft | 435 kts | 338° |
| 2026-05-07 07:44 | 23.26377 | 113.78230 | 23612 ft | 436 kts | 338° |
| 2026-05-07 07:44 | 23.29248 | 113.77103 | 23825 ft | 438 kts | 338° |
| 2026-05-07 07:44 | 23.32116 | 113.75977 | 24034 ft | 439 kts | 337° |
| 2026-05-07 07:45 | 23.34993 | 113.74846 | 24239 ft | 440 kts | 338° |
| 2026-05-07 07:45 | 23.37877 | 113.73713 | 24444 ft | 442 kts | 337° |
| 2026-05-07 07:45 | 23.40769 | 113.72575 | 24637 ft | 442 kts | 337° |
| 2026-05-07 07:45 | 23.43591 | 113.71461 | 24824 ft | 443 kts | 337° |
| 2026-05-07 07:46 | 23.46495 | 113.70313 | 25027 ft | 444 kts | 337° |
| 2026-05-07 07:46 | 23.49403 | 113.69162 | 25197 ft | 445 kts | 337° |
| 2026-05-07 07:46 | 23.52281 | 113.68022 | 25353 ft | 447 kts | 337° |
| 2026-05-07 07:46 | 23.55207 | 113.66863 | 25557 ft | 447 kts | 337° |
| 2026-05-07 07:47 | 23.58137 | 113.65704 | 25743 ft | 448 kts | 337° |
| 2026-05-07 07:47 | 23.61074 | 113.64542 | 25938 ft | 449 kts | 337° |
| 2026-05-07 07:47 | 23.64014 | 113.63380 | 26130 ft | 450 kts | 337° |
| 2026-05-07 07:47 | 23.66964 | 113.62211 | 26311 ft | 451 kts | 337° |
| 2026-05-07 07:48 | 23.69914 | 113.61042 | 26500 ft | 452 kts | 337° |
| 2026-05-07 07:48 | 23.72871 | 113.59868 | 26677 ft | 453 kts | 337° |
| 2026-05-07 07:48 | 23.75839 | 113.58692 | 26884 ft | 454 kts | 337° |
| 2026-05-07 07:48 | 23.78686 | 113.57561 | 27026 ft | 455 kts | 337° |
| 2026-05-07 07:49 | 23.81667 | 113.56378 | 27192 ft | 456 kts | 337° |
| 2026-05-07 07:49 | 23.84649 | 113.55194 | 27402 ft | 456 kts | 337° |
| 2026-05-07 07:49 | 23.87641 | 113.54006 | 27584 ft | 457 kts | 337° |
| 2026-05-07 07:49 | 23.90592 | 113.52833 | 27756 ft | 458 kts | 337° |
| 2026-05-07 07:50 | 23.93595 | 113.51638 | 27927 ft | 460 kts | 337° |
| 2026-05-07 07:50 | 23.96601 | 113.50442 | 28104 ft | 460 kts | 337° |
| 2026-05-07 07:50 | 23.99616 | 113.49240 | 28288 ft | 461 kts | 337° |
| 2026-05-07 07:50 | 24.02636 | 113.48036 | 28471 ft | 462 kts | 336° |
| 2026-05-07 07:51 | 24.05652 | 113.46833 | 28658 ft | 462 kts | 336° |
| 2026-05-07 07:51 | 24.08684 | 113.45624 | 28841 ft | 463 kts | 336° |
| 2026-05-07 07:51 | 24.11714 | 113.44414 | 29033 ft | 464 kts | 336° |
| 2026-05-07 07:51 | 24.14751 | 113.43203 | 29201 ft | 465 kts | 336° |
| 2026-05-07 07:52 | 24.17869 | 113.42206 | 29387 ft | 470 kts | 345° |
| 2026-05-07 07:52 | 24.21121 | 113.41729 | 29554 ft | 475 kts | 354° |
| 2026-05-07 07:52 | 24.24444 | 113.41651 | 29719 ft | 478 kts | 356° |
| 2026-05-07 07:52 | 24.27779 | 113.41696 | 29887 ft | 480 kts | 358° |
| 2026-05-07 07:53 | 24.31122 | 113.41807 | 30083 ft | 481 kts | 358° |
| 2026-05-07 07:53 | 24.34430 | 113.41941 | 30256 ft | 482 kts | 358° |
| 2026-05-07 07:53 | 24.37788 | 113.42082 | 30447 ft | 483 kts | 358° |
| 2026-05-07 07:53 | 24.41158 | 113.42199 | 30636 ft | 484 kts | 358° |
| 2026-05-07 07:54 | 24.44520 | 113.42305 | 30854 ft | 483 kts | 358° |
| 2026-05-07 07:54 | 24.47890 | 113.42403 | 31039 ft | 484 kts | 358° |
| 2026-05-07 07:54 | 24.51264 | 113.42494 | 31186 ft | 486 kts | 358° |
| 2026-05-07 07:54 | 24.54648 | 113.42584 | 31374 ft | 487 kts | 358° |
| 2026-05-07 07:55 | 24.58044 | 113.42674 | 31537 ft | 488 kts | 358° |
| 2026-05-07 07:55 | 24.61442 | 113.42767 | 31686 ft | 489 kts | 358° |
| 2026-05-07 07:55 | 24.64817 | 113.42863 | 31862 ft | 490 kts | 358° |
| 2026-05-07 07:55 | 24.68227 | 113.42960 | 32010 ft | 491 kts | 358° |
| 2026-05-07 07:56 | 24.71640 | 113.43056 | 32165 ft | 491 kts | 358° |
| 2026-05-07 07:56 | 24.75063 | 113.43154 | 32291 ft | 492 kts | 358° |
| 2026-05-07 07:56 | 24.78492 | 113.43251 | 32393 ft | 493 kts | 357° |
| 2026-05-07 07:56 | 24.81923 | 113.43347 | 32550 ft | 494 kts | 358° |
| 2026-05-07 07:57 | 24.85362 | 113.43445 | 32686 ft | 495 kts | 358° |
| 2026-05-07 07:57 | 24.88812 | 113.43543 | 32831 ft | 495 kts | 358° |
| 2026-05-07 07:57 | 24.92267 | 113.43642 | 32959 ft | 495 kts | 358° |
| 2026-05-07 07:57 | 24.95671 | 113.43743 | 33010 ft | 483 kts | 358° |
| 2026-05-07 07:58 | 24.98962 | 113.43843 | 33012 ft | 476 kts | 357° |
| 2026-05-07 07:58 | 25.05577 | 113.44032 | 33007 ft | 474 kts | 357° |
| 2026-05-07 07:59 | 25.12183 | 113.44217 | 33007 ft | 474 kts | 357° |
| 2026-05-07 07:59 | 25.18786 | 113.44402 | 33008 ft | 475 kts | 357° |
| 2026-05-07 08:00 | 25.25389 | 113.44591 | 33006 ft | 474 kts | 358° |
| 2026-05-07 08:00 | 25.31974 | 113.44780 | 33008 ft | 473 kts | 357° |
| 2026-05-07 08:01 | 25.38538 | 113.44966 | 33007 ft | 475 kts | 357° |
| 2026-05-07 08:01 | 25.45162 | 113.45156 | 33006 ft | 476 kts | 357° |
| 2026-05-07 08:02 | 25.51796 | 113.45349 | 33005 ft | 476 kts | 358° |
| 2026-05-07 08:02 | 25.58412 | 113.45544 | 33015 ft | 475 kts | 357° |
| 2026-05-07 08:03 | 25.65018 | 113.45732 | 33018 ft | 475 kts | 357° |
| 2026-05-07 08:03 | 25.71639 | 113.45919 | 33017 ft | 476 kts | 357° |
| 2026-05-07 08:04 | 25.78253 | 113.46112 | 33016 ft | 475 kts | 357° |
| 2026-05-07 08:04 | 25.84831 | 113.46301 | 33014 ft | 475 kts | 357° |
| 2026-05-07 08:05 | 25.91442 | 113.46372 | 33016 ft | 474 kts | 354° |
| 2026-05-07 08:05 | 25.98037 | 113.46062 | 33016 ft | 473 kts | 353° |
| 2026-05-07 08:06 | 26.04618 | 113.45716 | 33021 ft | 474 kts | 353° |
| 2026-05-07 08:06 | 26.11220 | 113.45428 | 33023 ft | 475 kts | 354° |
| 2026-05-07 08:07 | 26.17792 | 113.45177 | 33023 ft | 475 kts | 354° |
| 2026-05-07 08:07 | 26.24418 | 113.44926 | 33024 ft | 476 kts | 353° |
| 2026-05-07 08:08 | 26.31039 | 113.44675 | 33021 ft | 476 kts | 353° |
| 2026-05-07 08:08 | 26.37663 | 113.44421 | 33022 ft | 476 kts | 353° |
| 2026-05-07 08:09 | 26.44296 | 113.44166 | 33023 ft | 477 kts | 353° |
| 2026-05-07 08:09 | 26.50887 | 113.43910 | 33023 ft | 477 kts | 353° |
| 2026-05-07 08:10 | 26.57543 | 113.43659 | 33027 ft | 477 kts | 353° |
| 2026-05-07 08:10 | 26.64187 | 113.43401 | 33037 ft | 478 kts | 353° |
| 2026-05-07 08:11 | 26.70839 | 113.43143 | 33041 ft | 479 kts | 353° |
| 2026-05-07 08:11 | 26.77463 | 113.42888 | 33043 ft | 480 kts | 353° |
| 2026-05-07 08:12 | 26.84162 | 113.42625 | 33054 ft | 481 kts | 353° |
| 2026-05-07 08:12 | 26.90851 | 113.42367 | 33054 ft | 481 kts | 353° |
| 2026-05-07 08:13 | 26.96407 | 113.42155 | 33061 ft | 481 kts | 353° |
| 2026-05-07 08:13 | 27.03111 | 113.41899 | 33062 ft | 482 kts | 352° |
| 2026-05-07 08:14 | 27.09829 | 113.41641 | 33062 ft | 482 kts | 352° |
| 2026-05-07 08:14 | 27.16539 | 113.41382 | 33062 ft | 483 kts | 352° |
| 2026-05-07 08:15 | 27.23253 | 113.41121 | 33063 ft | 484 kts | 352° |
| 2026-05-07 08:15 | 27.29951 | 113.40861 | 33062 ft | 484 kts | 352° |
| 2026-05-07 08:16 | 27.36701 | 113.40679 | 33059 ft | 487 kts | 355° |
| 2026-05-07 08:16 | 27.43494 | 113.40842 | 33061 ft | 489 kts | 356° |
| 2026-05-07 08:17 | 27.50298 | 113.41058 | 33061 ft | 489 kts | 355° |
| 2026-05-07 08:17 | 27.57114 | 113.41228 | 33058 ft | 489 kts | 355° |
| 2026-05-07 08:18 | 27.63894 | 113.41363 | 33062 ft | 490 kts | 355° |
| 2026-05-07 08:18 | 27.70704 | 113.42434 | 33064 ft | 506 kts | 14° |
| 2026-05-07 08:18 | 27.73925 | 113.44118 | 33062 ft | 514 kts | 26° |
| 2026-05-07 08:19 | 27.76842 | 113.46498 | 33068 ft | 520 kts | 37° |
| 2026-05-07 08:19 | 27.79762 | 113.48856 | 33073 ft | 512 kts | 22° |
| 2026-05-07 08:19 | 27.83047 | 113.50278 | 33064 ft | 499 kts | 7° |
| 2026-05-07 08:19 | 27.86446 | 113.50713 | 33067 ft | 487 kts | 354° |
| 2026-05-07 08:20 | 27.89821 | 113.50583 | 33061 ft | 485 kts | 350° |
| 2026-05-07 08:20 | 27.96555 | 113.50219 | 33061 ft | 490 kts | 353° |
| 2026-05-07 08:21 | 28.03408 | 113.50404 | 33062 ft | 493 kts | 356° |
| 2026-05-07 08:21 | 28.10267 | 113.50959 | 33062 ft | 495 kts | 358° |
| 2026-05-07 08:22 | 28.17128 | 113.51511 | 33062 ft | 494 kts | 357° |
| 2026-05-07 08:22 | 28.23952 | 113.52001 | 33070 ft | 494 kts | 357° |
| 2026-05-07 08:23 | 28.30819 | 113.52487 | 33071 ft | 494 kts | 357° |
| 2026-05-07 08:23 | 28.37684 | 113.52980 | 33071 ft | 493 kts | 357° |
| 2026-05-07 08:24 | 28.44547 | 113.53481 | 33071 ft | 493 kts | 357° |
| 2026-05-07 08:24 | 28.51346 | 113.53969 | 33070 ft | 493 kts | 357° |
| 2026-05-07 08:25 | 28.58192 | 113.54458 | 33071 ft | 492 kts | 357° |
| 2026-05-07 08:25 | 28.65026 | 113.54949 | 33071 ft | 492 kts | 357° |
| 2026-05-07 08:26 | 28.75273 | 113.55690 | 33072 ft | 491 kts | 357° |
| 2026-05-07 08:26 | 28.82097 | 113.56187 | 33071 ft | 491 kts | 357° |
| 2026-05-07 08:27 | 28.88912 | 113.56681 | 33073 ft | 490 kts | 357° |
| 2026-05-07 08:27 | 28.95704 | 113.57171 | 33070 ft | 489 kts | 357° |
| 2026-05-07 08:28 | 29.02459 | 113.57676 | 33086 ft | 489 kts | 357° |
| 2026-05-07 08:28 | 29.09263 | 113.58171 | 33078 ft | 489 kts | 356° |
| 2026-05-07 08:29 | 29.16065 | 113.58652 | 33080 ft | 489 kts | 356° |
| 2026-05-07 08:29 | 29.22845 | 113.59137 | 33086 ft | 488 kts | 356° |
| 2026-05-07 08:30 | 29.29620 | 113.59638 | 33090 ft | 487 kts | 357° |
| 2026-05-07 08:30 | 29.36333 | 113.60205 | 33093 ft | 487 kts | 357° |
| 2026-05-07 08:31 | 29.43097 | 113.60802 | 33087 ft | 486 kts | 358° |
| 2026-05-07 08:31 | 29.49856 | 113.61393 | 33102 ft | 487 kts | 357° |
| 2026-05-07 08:32 | 29.56624 | 113.61978 | 33100 ft | 487 kts | 357° |
| 2026-05-07 08:32 | 29.63371 | 113.62566 | 33102 ft | 487 kts | 357° |
| 2026-05-07 08:33 | 29.70095 | 113.63145 | 33108 ft | 487 kts | 357° |
| 2026-05-07 08:33 | 29.76861 | 113.63725 | 33108 ft | 488 kts | 357° |
| 2026-05-07 08:34 | 29.83632 | 113.64316 | 33108 ft | 487 kts | 357° |
| 2026-05-07 08:34 | 29.90393 | 113.64944 | 33106 ft | 490 kts | 0° |
| 2026-05-07 08:35 | 29.97063 | 113.67050 | 33116 ft | 504 kts | 14° |
| 2026-05-07 08:35 | 30.03574 | 113.70170 | 33117 ft | 507 kts | 17° |
| 2026-05-07 08:36 | 30.10032 | 113.73454 | 33118 ft | 507 kts | 17° |
| 2026-05-07 08:36 | 30.16494 | 113.76740 | 33117 ft | 507 kts | 17° |
| 2026-05-07 08:37 | 30.22930 | 113.79985 | 33117 ft | 507 kts | 17° |
| 2026-05-07 08:37 | 30.29398 | 113.83238 | 33117 ft | 507 kts | 17° |
| 2026-05-07 08:38 | 30.35863 | 113.86491 | 33117 ft | 507 kts | 17° |
| 2026-05-07 08:38 | 30.42324 | 113.89749 | 33117 ft | 507 kts | 17° |
| 2026-05-07 08:39 | 30.48783 | 113.93011 | 33117 ft | 506 kts | 17° |
| 2026-05-07 08:39 | 30.55232 | 113.96276 | 33118 ft | 505 kts | 17° |
| 2026-05-07 08:40 | 30.61626 | 113.99517 | 33117 ft | 505 kts | 17° |
| 2026-05-07 08:40 | 30.68090 | 114.02695 | 33118 ft | 504 kts | 16° |
| 2026-05-07 08:41 | 30.74511 | 114.06066 | 33117 ft | 507 kts | 20° |
| 2026-05-07 08:41 | 30.80856 | 114.09672 | 33117 ft | 506 kts | 20° |
| 2026-05-07 08:42 | 30.87226 | 114.13173 | 33118 ft | 506 kts | 19° |
| 2026-05-07 08:42 | 30.93566 | 114.16608 | 33118 ft | 506 kts | 19° |
| 2026-05-07 08:43 | 30.99939 | 114.20064 | 33118 ft | 505 kts | 19° |
| 2026-05-07 08:43 | 31.06311 | 114.23523 | 33118 ft | 504 kts | 19° |
| 2026-05-07 08:44 | 31.12676 | 114.26955 | 33111 ft | 503 kts | 19° |
| 2026-05-07 08:44 | 31.19033 | 114.30392 | 33109 ft | 503 kts | 19° |
| 2026-05-07 08:45 | 31.25378 | 114.33829 | 33108 ft | 503 kts | 19° |
| 2026-05-07 08:45 | 31.31741 | 114.37206 | 33109 ft | 499 kts | 15° |
| 2026-05-07 08:46 | 31.38347 | 114.38901 | 33113 ft | 484 kts | 358° |
| 2026-05-07 08:46 | 31.45052 | 114.39300 | 33107 ft | 481 kts | 355° |
| 2026-05-07 08:47 | 31.51740 | 114.39486 | 33107 ft | 480 kts | 355° |
| 2026-05-07 08:47 | 31.58411 | 114.39664 | 33109 ft | 479 kts | 355° |
| 2026-05-07 08:48 | 31.65091 | 114.39870 | 33113 ft | 480 kts | 355° |
| 2026-05-07 08:48 | 31.71765 | 114.40095 | 33119 ft | 480 kts | 355° |
| 2026-05-07 08:49 | 31.78401 | 114.40319 | 33118 ft | 479 kts | 355° |
| 2026-05-07 08:49 | 31.85071 | 114.40533 | 33117 ft | 479 kts | 355° |
| 2026-05-07 08:50 | 31.91749 | 114.40732 | 33118 ft | 479 kts | 355° |
| 2026-05-07 08:50 | 31.98420 | 114.40928 | 33118 ft | 480 kts | 355° |
| 2026-05-07 08:51 | 32.05098 | 114.41132 | 33117 ft | 480 kts | 355° |
| 2026-05-07 08:51 | 32.11768 | 114.41340 | 33117 ft | 479 kts | 355° |
| 2026-05-07 08:52 | 32.18434 | 114.41548 | 33126 ft | 478 kts | 355° |
| 2026-05-07 08:52 | 32.25094 | 114.41755 | 33127 ft | 479 kts | 355° |
| 2026-05-07 08:53 | 32.31724 | 114.42177 | 33127 ft | 481 kts | 359° |
| 2026-05-07 08:53 | 32.38409 | 114.42870 | 33126 ft | 482 kts | 359° |
| 2026-05-07 08:54 | 32.45091 | 114.43552 | 33135 ft | 482 kts | 359° |
| 2026-05-07 08:54 | 32.51768 | 114.44186 | 33136 ft | 481 kts | 358° |
| 2026-05-07 08:55 | 32.58454 | 114.44805 | 33137 ft | 481 kts | 358° |
| 2026-05-07 08:55 | 32.65125 | 114.45408 | 33141 ft | 479 kts | 357° |
| 2026-05-07 08:56 | 32.68408 | 114.45147 | 33147 ft | 467 kts | 343° |
| 2026-05-07 08:56 | 32.71503 | 114.44124 | 33145 ft | 457 kts | 332° |
| 2026-05-07 08:56 | 32.77045 | 114.40756 | 33159 ft | 457 kts | 334° |
| 2026-05-07 08:57 | 32.80185 | 114.39925 | 33152 ft | 470 kts | 349° |
| 2026-05-07 08:57 | 32.83493 | 114.40012 | 33152 ft | 480 kts | 359° |
| 2026-05-07 08:57 | 32.90156 | 114.41199 | 33154 ft | 485 kts | 2° |
| 2026-05-07 08:58 | 32.96831 | 114.42312 | 33164 ft | 482 kts | 360° |
| 2026-05-07 08:58 | 33.03463 | 114.43083 | 33174 ft | 480 kts | 358° |
| 2026-05-07 08:59 | 33.10126 | 114.43705 | 33166 ft | 479 kts | 357° |
| 2026-05-07 08:59 | 33.16775 | 114.44305 | 33174 ft | 479 kts | 357° |
| 2026-05-07 09:00 | 33.23429 | 114.44916 | 33167 ft | 479 kts | 357° |
| 2026-05-07 09:00 | 33.28960 | 114.45434 | 33175 ft | 479 kts | 357° |
| 2026-05-07 09:01 | 33.36694 | 114.46170 | 33181 ft | 479 kts | 357° |
| 2026-05-07 09:01 | 33.41111 | 114.46585 | 33180 ft | 479 kts | 357° |
| 2026-05-07 09:02 | 33.47759 | 114.47209 | 33189 ft | 478 kts | 357° |
| 2026-05-07 09:02 | 33.54402 | 114.47836 | 33191 ft | 478 kts | 356° |
| 2026-05-07 09:03 | 33.61036 | 114.48462 | 33191 ft | 478 kts | 356° |
| 2026-05-07 09:03 | 33.67662 | 114.49087 | 33202 ft | 478 kts | 356° |
| 2026-05-07 09:04 | 33.74300 | 114.49705 | 33205 ft | 478 kts | 356° |
| 2026-05-07 09:04 | 33.80911 | 114.50323 | 33209 ft | 478 kts | 356° |
| 2026-05-07 09:05 | 33.87539 | 114.50951 | 33210 ft | 478 kts | 356° |
| 2026-05-07 09:05 | 33.94160 | 114.51572 | 33210 ft | 477 kts | 356° |
| 2026-05-07 09:06 | 34.00785 | 114.52194 | 33210 ft | 477 kts | 356° |